Pays
Station

 

Conditions  météo  pour  Caen  -  France    France

  
7 °C
    
 
 

METAR pour Caen :

LFRK 202300Z AUTO 01012KT 9999 FEW014/// SCT022/// BKN034/// ///TCU 07/05 Q1021

 

Voici le bulletin pour Caen - France.
 
Le bulletin a été fait il y a 24 minutes, à 23:00 UTC .
Le vent soufflait à la vitesse de 6.2 mètres par seconde de Nord (010°).
 
La température était de 7 °C, avec un point de rosée à 5 °C.
La pression atmosphérique était de 1021 hPa.
L'humidité relative était de 87.1%.
 
La visibilité globale était de supérieure à 10 kilomètres.
 

 
 
 

Pays :   A   B   C   D   E   F   G   H   I   J   K   L   M   N   O   P   Q   R   S   T   U   V   W   Y   Z

 

Partenaires :  Info Météo avec Met'info
Météo Marine avec MeteoMarine.net
Infos Site  |  Infos Légales  |  Crédits  |  Confidentialité
Contactez-nous  |  Ajouter aux favoris
© 2013-2018 METAR - Tous droits réservés